createdAt,value
2023-03-22T00:00:15.450Z,1.80
2023-03-22T00:02:43.629Z,1.70
2023-03-22T00:05:10.217Z,1.38
2023-03-22T00:07:37.713Z,1.25
2023-03-22T00:10:05.479Z,1.20
2023-03-22T00:12:31.985Z,1.10
2023-03-22T00:15:00.181Z,1.05
2023-03-22T00:17:26.783Z,1.13
2023-03-22T00:19:54.684Z,1.02
2023-03-22T00:22:21.833Z,1.20
2023-03-22T00:24:48.361Z,1.25
2023-03-22T00:27:14.914Z,1.13
2023-03-22T00:29:41.836Z,1.50
2023-03-22T00:32:08.397Z,0.75
2023-03-22T00:34:34.937Z,1.20
2023-03-22T00:37:01.350Z,0.80
2023-03-22T00:39:27.923Z,1.00
2023-03-22T00:41:54.365Z,1.00
2023-03-22T00:44:21.340Z,1.08
2023-03-22T00:46:47.835Z,0.80
2023-03-22T00:49:15.112Z,0.93
2023-03-22T00:51:41.527Z,1.08
2023-03-22T00:54:10.140Z,1.27
2023-03-22T00:56:37.719Z,0.93
2023-03-22T00:59:04.948Z,1.10
2023-03-22T01:01:32.035Z,0.93
2023-03-22T01:03:58.871Z,0.88
2023-03-22T01:06:25.507Z,1.65
2023-03-22T01:08:55.030Z,0.90
2023-03-22T01:11:21.548Z,0.73
2023-03-22T01:13:48.096Z,0.98
2023-03-22T01:16:14.704Z,1.10
2023-03-22T01:18:41.349Z,0.93
2023-03-22T01:21:08.086Z,0.98
2023-03-22T01:23:34.957Z,0.90
2023-03-22T01:26:01.856Z,0.85
2023-03-22T01:28:29.098Z,0.98
2023-03-22T01:30:57.027Z,1.48
2023-03-22T01:33:23.512Z,1.00
2023-03-22T01:35:49.991Z,1.58
2023-03-22T01:38:16.650Z,1.15
2023-03-22T01:40:43.499Z,1.20
2023-03-22T01:43:17.302Z,1.48
2023-03-22T01:45:51.786Z,1.20
2023-03-22T01:48:27.477Z,1.02
2023-03-22T01:51:02.839Z,0.98
2023-03-22T01:53:32.696Z,1.15
2023-03-22T01:55:59.553Z,1.00
2023-03-22T01:58:26.257Z,1.20
2023-03-22T02:00:53.104Z,1.30
2023-03-22T02:03:27.919Z,1.10
2023-03-22T02:05:54.596Z,1.40
2023-03-22T02:08:21.165Z,1.20
2023-03-22T02:10:48.064Z,1.40
2023-03-22T02:13:38.928Z,1.42
2023-03-22T02:16:10.739Z,1.30
2023-03-22T02:18:53.798Z,1.40
2023-03-22T02:21:26.973Z,1.38
2023-03-22T02:24:25.643Z,1.48
2023-03-22T02:27:06.852Z,1.48
2023-03-22T02:29:39.325Z,1.40
2023-03-22T02:32:24.521Z,1.27
2023-03-22T02:34:57.308Z,1.40
2023-03-22T02:38:02.869Z,1.40
2023-03-22T02:40:44.623Z,1.33
2023-03-22T02:43:20.600Z,1.05
2023-03-22T02:46:04.091Z,1.30
2023-03-22T02:48:56.883Z,1.25
2023-03-22T02:51:31.329Z,1.30
2023-03-22T02:54:24.945Z,1.30
2023-03-22T02:57:03.058Z,1.60
2023-03-22T02:59:31.986Z,1.30
2023-03-22T03:02:02.845Z,1.25
2023-03-22T03:04:33.093Z,1.25
2023-03-22T03:07:04.360Z,1.50
2023-03-22T03:09:32.811Z,1.48
2023-03-22T03:11:59.328Z,1.30
2023-03-22T03:14:31.318Z,1.48
2023-03-22T03:17:07.062Z,1.30
2023-03-22T03:20:15.119Z,1.20
2023-03-22T03:23:14.862Z,1.20
2023-03-22T03:25:54.444Z,1.20
2023-03-22T03:28:39.345Z,1.15
2023-03-22T03:31:17.482Z,1.10
2023-03-22T03:34:07.859Z,0.98
2023-03-22T03:36:38.019Z,1.02
2023-03-22T03:39:09.637Z,1.27
2023-03-22T03:41:36.957Z,1.27
2023-03-22T03:44:04.402Z,1.20
2023-03-22T03:46:31.163Z,1.05
2023-03-22T03:48:58.444Z,1.10
2023-03-22T03:51:27.292Z,1.20
2023-03-22T03:53:53.881Z,1.00
2023-03-22T03:56:20.376Z,0.95
2023-03-22T03:58:46.903Z,1.15
2023-03-22T04:01:14.297Z,1.30
2023-03-22T04:03:40.694Z,1.20
2023-03-22T04:06:09.102Z,1.10
2023-03-22T04:08:35.573Z,1.25
2023-03-22T04:11:01.979Z,1.00
2023-03-22T04:13:29.813Z,1.10
2023-03-22T04:15:58.085Z,1.20
2023-03-22T04:18:24.586Z,1.30
2023-03-22T04:20:53.415Z,1.30
2023-03-22T04:23:22.509Z,1.60
2023-03-22T04:25:50.414Z,1.70
2023-03-22T04:28:19.693Z,1.88
2023-03-22T04:30:52.303Z,1.42
2023-03-22T04:33:19.700Z,1.80
2023-03-22T04:35:49.932Z,1.50
2023-03-22T04:38:16.476Z,1.70
2023-03-22T04:40:46.563Z,1.90
2023-03-22T04:43:15.759Z,2.22
2023-03-22T04:45:44.678Z,1.70
2023-03-22T04:48:11.279Z,1.88
2023-03-22T04:50:40.194Z,1.30
2023-03-22T04:53:08.127Z,0.88
2023-03-22T04:55:34.607Z,1.00
2023-03-22T04:58:01.045Z,1.40
2023-03-22T05:00:30.168Z,1.08
2023-03-22T05:02:58.261Z,1.20
2023-03-22T05:05:24.817Z,1.13
2023-03-22T05:07:51.528Z,1.08
2023-03-22T05:10:18.039Z,1.60
2023-03-22T05:12:45.330Z,1.20
2023-03-22T05:15:11.804Z,1.13
2023-03-22T05:17:38.292Z,1.13
2023-03-22T05:20:10.038Z,1.40
2023-03-22T05:22:40.613Z,1.50
2023-03-22T05:25:08.663Z,1.35
2023-03-22T05:27:35.298Z,1.30
2023-03-22T05:30:02.203Z,1.30
2023-03-22T05:32:29.317Z,1.20
2023-03-22T05:34:56.488Z,1.08
2023-03-22T05:37:22.996Z,1.23
2023-03-22T05:39:49.550Z,1.83
2023-03-22T05:42:15.994Z,1.52
2023-03-22T05:44:43.373Z,1.55
2023-03-22T05:47:09.798Z,1.20
2023-03-22T05:49:36.325Z,1.30
2023-03-22T05:52:04.881Z,1.80
2023-03-22T05:54:31.658Z,1.65
2023-03-22T05:56:58.175Z,1.60
2023-03-22T05:59:24.759Z,1.40
2023-03-22T06:01:51.617Z,1.80
2023-03-22T06:04:18.693Z,1.52
2023-03-22T06:06:45.369Z,1.40
2023-03-22T06:09:18.069Z,1.50
2023-03-22T06:11:44.825Z,1.55
2023-03-22T06:14:11.640Z,1.45
2023-03-22T06:16:38.074Z,1.40
2023-03-22T06:19:04.636Z,1.63
2023-03-22T06:21:31.084Z,1.30
2023-03-22T06:23:57.587Z,1.80
2023-03-22T06:26:24.067Z,2.03
2023-03-22T06:28:51.019Z,1.30
2023-03-22T06:31:17.539Z,1.50
2023-03-22T06:33:45.510Z,1.70
2023-03-22T06:36:12.042Z,1.75
2023-03-22T06:38:40.969Z,1.75
2023-03-22T06:41:07.784Z,1.58
2023-03-22T06:43:34.253Z,1.48
2023-03-22T06:46:00.754Z,1.40
2023-03-22T06:48:27.341Z,1.75
2023-03-22T06:50:53.921Z,1.98
2023-03-22T06:53:20.536Z,1.58
2023-03-22T06:55:47.110Z,1.42
2023-03-22T06:58:15.233Z,1.60
2023-03-22T07:00:42.035Z,1.27
2023-03-22T07:03:08.776Z,1.80
2023-03-22T07:05:35.385Z,1.88
2023-03-22T07:08:01.876Z,1.10
2023-03-22T07:10:29.108Z,1.50
2023-03-22T07:12:55.709Z,1.38
2023-03-22T07:15:24.631Z,1.50
2023-03-22T07:17:52.075Z,1.40
2023-03-22T07:20:19.818Z,1.77
2023-03-22T07:22:46.513Z,2.23
2023-03-22T07:25:14.281Z,2.20
2023-03-22T07:27:41.070Z,2.30
2023-03-22T07:30:09.724Z,2.00
2023-03-22T07:32:36.524Z,1.80
2023-03-22T07:35:03.054Z,2.13
2023-03-22T07:37:29.536Z,1.77
2023-03-22T07:39:55.941Z,1.95
2023-03-22T07:42:22.369Z,1.63
2023-03-22T07:44:49.815Z,1.80
2023-03-22T07:47:20.286Z,1.20
2023-03-22T07:49:51.475Z,1.55
2023-03-22T07:52:18.154Z,1.25
2023-03-22T07:54:44.561Z,1.40
2023-03-22T07:57:10.998Z,1.58
2023-03-22T07:59:39.891Z,1.42
2023-03-22T08:02:06.825Z,1.83
2023-03-22T08:04:34.234Z,1.10
2023-03-22T08:07:00.716Z,1.52
2023-03-22T08:09:27.261Z,1.50
2023-03-22T08:11:57.003Z,1.20
2023-03-22T08:14:35.512Z,1.05
2023-03-22T08:17:02.600Z,1.60
2023-03-22T08:19:29.047Z,0.93
2023-03-22T08:21:55.783Z,1.00
2023-03-22T08:24:22.255Z,1.02
2023-03-22T08:26:49.685Z,1.05
2023-03-22T08:29:16.644Z,1.10
2023-03-22T08:31:44.712Z,0.90
2023-03-22T08:34:11.163Z,1.05
2023-03-22T08:36:38.290Z,0.80
2023-03-22T08:39:05.367Z,1.33
2023-03-22T08:41:31.783Z,1.30
2023-03-22T08:43:58.354Z,1.15
2023-03-22T08:46:24.835Z,1.00
2023-03-22T08:48:51.246Z,1.30
2023-03-22T08:51:22.347Z,0.93
2023-03-22T08:53:49.079Z,1.13
2023-03-22T08:56:16.647Z,1.17
2023-03-22T08:58:46.670Z,1.27
2023-03-22T09:01:15.226Z,1.40
2023-03-22T09:03:41.956Z,1.10
2023-03-22T09:06:09.684Z,1.08
2023-03-22T09:08:36.810Z,1.10
2023-03-22T09:11:03.303Z,1.00
2023-03-22T09:13:31.147Z,1.10
2023-03-22T09:15:57.713Z,1.35
2023-03-22T09:18:24.892Z,1.10
2023-03-22T09:20:51.930Z,1.48
2023-03-22T09:23:19.041Z,1.65
2023-03-22T09:25:46.963Z,1.20
2023-03-22T09:28:15.000Z,1.20
2023-03-22T09:30:41.814Z,1.27
2023-03-22T09:33:09.305Z,0.83
2023-03-22T09:35:36.219Z,0.80
2023-03-22T09:38:03.558Z,1.10
2023-03-22T09:40:32.854Z,1.15
2023-03-22T09:43:02.440Z,1.10
2023-03-22T09:45:38.495Z,1.23
2023-03-22T09:48:26.978Z,0.88
2023-03-22T09:53:22.786Z,0.77
2023-03-22T09:56:08.200Z,0.80
2023-03-22T09:58:56.940Z,1.20
2023-03-22T10:01:51.017Z,0.63
2023-03-22T10:04:29.528Z,0.90
2023-03-22T10:07:24.309Z,0.77
2023-03-22T10:10:07.334Z,0.70
2023-03-22T10:12:46.221Z,0.60
2023-03-22T10:15:32.007Z,0.85
2023-03-22T10:18:00.814Z,0.93
2023-03-22T10:20:37.331Z,0.85
2023-03-22T10:23:06.902Z,0.80
2023-03-22T10:25:38.167Z,0.80
2023-03-22T10:28:22.242Z,0.85
2023-03-22T10:30:54.560Z,0.63
2023-03-22T10:33:28.462Z,0.65
2023-03-22T10:35:56.084Z,0.60
2023-03-22T10:38:26.622Z,0.70
2023-03-22T10:40:56.867Z,0.70
2023-03-22T10:43:36.578Z,0.80
2023-03-22T10:46:07.712Z,0.75
2023-03-22T10:48:41.910Z,0.80
2023-03-22T10:51:18.053Z,0.90
2023-03-22T10:53:47.644Z,1.10
2023-03-22T10:56:16.693Z,0.80
2023-03-22T10:58:44.432Z,0.90
2023-03-22T11:01:13.838Z,0.95
2023-03-22T11:03:50.870Z,0.80
2023-03-22T11:06:18.381Z,0.82
2023-03-22T11:08:53.687Z,0.77
2023-03-22T11:11:26.409Z,0.85
2023-03-22T11:14:07.765Z,1.15
2023-03-22T11:16:44.669Z,1.10
2023-03-22T11:19:17.232Z,0.80
2023-03-22T11:21:45.298Z,1.05
2023-03-22T11:24:15.302Z,0.80
2023-03-22T11:26:42.049Z,0.90
2023-03-22T11:29:16.480Z,1.00
2023-03-22T11:31:55.776Z,0.90
2023-03-22T11:34:27.078Z,0.80
2023-03-22T11:36:59.556Z,0.80
2023-03-22T11:39:31.071Z,1.05
2023-03-22T11:42:01.522Z,0.80
2023-03-22T11:44:32.091Z,1.05
2023-03-22T11:47:01.515Z,0.95
2023-03-22T11:49:40.660Z,0.80
2023-03-22T11:52:10.372Z,0.90
2023-03-22T11:54:39.200Z,0.98
2023-03-22T11:57:14.509Z,1.13
2023-03-22T11:59:53.271Z,0.90
2023-03-22T12:02:34.535Z,0.90
2023-03-22T12:05:10.713Z,1.40
2023-03-22T12:07:38.884Z,1.20
2023-03-22T12:10:08.423Z,1.05
2023-03-22T12:12:46.660Z,0.70
2023-03-22T12:15:16.073Z,0.85
2023-03-22T12:17:49.295Z,0.75
2023-03-22T12:20:18.334Z,1.20
2023-03-22T12:22:51.915Z,0.80
2023-03-22T12:25:32.990Z,1.00
2023-03-22T12:28:04.170Z,1.15
2023-03-22T12:30:33.506Z,0.90
2023-03-22T12:33:06.589Z,0.93
2023-03-22T12:35:35.209Z,1.00
2023-03-22T12:38:30.282Z,1.00
2023-03-22T12:41:00.708Z,0.90
2023-03-22T12:43:43.393Z,0.70
2023-03-22T12:46:18.416Z,0.90
2023-03-22T12:48:56.244Z,1.00
2023-03-22T12:51:22.765Z,1.05
2023-03-22T12:53:53.163Z,0.90
2023-03-22T12:56:23.249Z,1.02
2023-03-22T12:58:52.206Z,0.80
2023-03-22T13:01:44.377Z,0.98
2023-03-22T13:04:43.215Z,0.80
2023-03-22T13:07:16.239Z,0.90
2023-03-22T13:09:51.789Z,0.98
2023-03-22T13:12:18.257Z,1.00
2023-03-22T13:14:56.146Z,1.00
2023-03-22T13:17:22.594Z,1.00
2023-03-22T13:20:07.765Z,1.20
2023-03-22T13:22:37.783Z,1.23
2023-03-22T13:25:13.310Z,1.20
2023-03-22T13:27:45.638Z,1.30
2023-03-22T13:30:24.090Z,1.50
2023-03-22T13:33:08.636Z,1.25
2023-03-22T13:35:51.235Z,1.20
2023-03-22T13:38:21.887Z,1.45
2023-03-22T13:41:16.981Z,1.42
2023-03-22T13:43:50.193Z,1.10
2023-03-22T13:46:22.610Z,1.30
2023-03-22T13:48:52.156Z,0.95
2023-03-22T13:51:21.897Z,0.90
2023-03-22T13:53:55.900Z,1.00
2023-03-22T13:56:52.181Z,1.20
2023-03-22T13:59:27.995Z,1.10
2023-03-22T14:02:04.843Z,0.80
2023-03-22T14:04:56.098Z,0.80
2023-03-22T14:07:49.133Z,0.98
2023-03-22T14:10:41.681Z,1.00
2023-03-22T14:13:36.475Z,0.77
2023-03-22T14:16:12.914Z,1.35
2023-03-22T14:18:44.536Z,1.00
2023-03-22T14:21:19.709Z,0.98
